sensor_id;sensor_type;location;lat;lon;timestamp;P1;durP1;ratioP1;P2;durP2;ratioP2
78875;SDS011;68253;52.506;5.486;2023-04-01T00:00:58;2.10;;;0.50;;
78875;SDS011;68253;52.506;5.486;2023-04-01T00:03:26;1.88;;;0.60;;
78875;SDS011;68253;52.506;5.486;2023-04-01T00:05:55;2.28;;;0.52;;
78875;SDS011;68253;52.506;5.486;2023-04-01T00:08:22;1.52;;;0.55;;
78875;SDS011;68253;52.506;5.486;2023-04-01T00:10:49;1.60;;;0.60;;
78875;SDS011;68253;52.506;5.486;2023-04-01T00:13:16;2.78;;;0.70;;
78875;SDS011;68253;52.506;5.486;2023-04-01T00:15:42;3.22;;;0.60;;
78875;SDS011;68253;52.506;5.486;2023-04-01T00:18:09;3.72;;;0.50;;
78875;SDS011;68253;52.506;5.486;2023-04-01T00:20:35;2.22;;;0.68;;
78875;SDS011;68253;52.506;5.486;2023-04-01T00:23:01;2.38;;;0.90;;
78875;SDS011;68253;52.506;5.486;2023-04-01T00:25:28;1.73;;;0.60;;
78875;SDS011;68253;52.506;5.486;2023-04-01T00:27:54;1.90;;;0.60;;
78875;SDS011;68253;52.506;5.486;2023-04-01T00:30:20;2.65;;;0.63;;
78875;SDS011;68253;52.506;5.486;2023-04-01T00:32:46;1.70;;;0.60;;
78875;SDS011;68253;52.506;5.486;2023-04-01T00:35:16;3.17;;;0.70;;
78875;SDS011;68253;52.506;5.486;2023-04-01T00:37:42;1.38;;;0.45;;
78875;SDS011;68253;52.506;5.486;2023-04-01T00:40:11;2.28;;;0.63;;
78875;SDS011;68253;52.506;5.486;2023-04-01T00:42:53;2.47;;;0.70;;
78875;SDS011;68253;52.506;5.486;2023-04-01T00:45:34;1.58;;;0.60;;
78875;SDS011;68253;52.506;5.486;2023-04-01T00:48:07;3.47;;;0.88;;
78875;SDS011;68253;52.506;5.486;2023-04-01T00:50:36;3.00;;;0.85;;
78875;SDS011;68253;52.506;5.486;2023-04-01T00:53:06;2.28;;;0.60;;
78875;SDS011;68253;52.506;5.486;2023-04-01T00:55:35;2.50;;;0.70;;
78875;SDS011;68253;52.506;5.486;2023-04-01T00:58:05;2.88;;;0.70;;
78875;SDS011;68253;52.506;5.486;2023-04-01T01:00:34;1.83;;;0.65;;
78875;SDS011;68253;52.506;5.486;2023-04-01T01:03:02;2.97;;;0.68;;
78875;SDS011;68253;52.506;5.486;2023-04-01T01:08:18;2.92;;;0.75;;
78875;SDS011;68253;52.506;5.486;2023-04-01T01:10:57;2.58;;;0.50;;
78875;SDS011;68253;52.506;5.486;2023-04-01T01:13:30;3.05;;;1.00;;
78875;SDS011;68253;52.506;5.486;2023-04-01T01:16:06;2.15;;;0.50;;
78875;SDS011;68253;52.506;5.486;2023-04-01T01:26:54;2.33;;;0.70;;
78875;SDS011;68253;52.506;5.486;2023-04-01T01:37:51;2.95;;;0.80;;
78875;SDS011;68253;52.506;5.486;2023-04-01T01:40:21;2.60;;;0.47;;
78875;SDS011;68253;52.506;5.486;2023-04-01T01:42:50;2.58;;;0.73;;
78875;SDS011;68253;52.506;5.486;2023-04-01T01:45:21;2.75;;;0.70;;
78875;SDS011;68253;52.506;5.486;2023-04-01T01:47:51;3.42;;;0.85;;
78875;SDS011;68253;52.506;5.486;2023-04-01T01:50:18;2.92;;;0.70;;
78875;SDS011;68253;52.506;5.486;2023-04-01T01:52:46;2.17;;;0.60;;
78875;SDS011;68253;52.506;5.486;2023-04-01T01:55:26;4.22;;;0.75;;
78875;SDS011;68253;52.506;5.486;2023-04-01T01:57:53;2.47;;;0.57;;
78875;SDS011;68253;52.506;5.486;2023-04-01T02:00:21;3.53;;;0.90;;
78875;SDS011;68253;52.506;5.486;2023-04-01T02:02:48;2.55;;;0.50;;
78875;SDS011;68253;52.506;5.486;2023-04-01T02:05:17;1.88;;;0.57;;
78875;SDS011;68253;52.506;5.486;2023-04-01T02:07:48;1.85;;;0.50;;
78875;SDS011;68253;52.506;5.486;2023-04-01T02:10:23;3.80;;;0.80;;
78875;SDS011;68253;52.506;5.486;2023-04-01T02:15:22;2.67;;;0.50;;
78875;SDS011;68253;52.506;5.486;2023-04-01T02:17:51;3.25;;;0.63;;
78875;SDS011;68253;52.506;5.486;2023-04-01T02:20:19;4.28;;;0.80;;
78875;SDS011;68253;52.506;5.486;2023-04-01T02:22:49;2.75;;;0.70;;
78875;SDS011;68253;52.506;5.486;2023-04-01T02:25:18;3.03;;;0.60;;
78875;SDS011;68253;52.506;5.486;2023-04-01T02:27:53;3.80;;;0.80;;
78875;SDS011;68253;52.506;5.486;2023-04-01T02:30:22;3.80;;;0.88;;
78875;SDS011;68253;52.506;5.486;2023-04-01T02:32:50;2.60;;;0.60;;
78875;SDS011;68253;52.506;5.486;2023-04-01T02:35:17;2.85;;;0.60;;
78875;SDS011;68253;52.506;5.486;2023-04-01T02:37:45;2.85;;;0.60;;
78875;SDS011;68253;52.506;5.486;2023-04-01T02:40:14;2.72;;;0.55;;
78875;SDS011;68253;52.506;5.486;2023-04-01T02:42:41;1.80;;;0.43;;
78875;SDS011;68253;52.506;5.486;2023-04-01T02:45:08;2.85;;;0.88;;
78875;SDS011;68253;52.506;5.486;2023-04-01T02:47:34;3.72;;;0.93;;
78875;SDS011;68253;52.506;5.486;2023-04-01T02:50:01;3.33;;;0.88;;
78875;SDS011;68253;52.506;5.486;2023-04-01T02:52:27;1.92;;;0.45;;
78875;SDS011;68253;52.506;5.486;2023-04-01T02:54:56;2.47;;;0.55;;
78875;SDS011;68253;52.506;5.486;2023-04-01T02:57:23;2.95;;;0.80;;
78875;SDS011;68253;52.506;5.486;2023-04-01T02:59:50;2.28;;;0.55;;
78875;SDS011;68253;52.506;5.486;2023-04-01T03:02:16;3.13;;;0.80;;
78875;SDS011;68253;52.506;5.486;2023-04-01T03:04:43;2.45;;;0.60;;
78875;SDS011;68253;52.506;5.486;2023-04-01T03:07:10;3.72;;;0.70;;
78875;SDS011;68253;52.506;5.486;2023-04-01T03:09:36;2.67;;;0.60;;
78875;SDS011;68253;52.506;5.486;2023-04-01T03:12:03;2.35;;;0.65;;
78875;SDS011;68253;52.506;5.486;2023-04-01T03:14:33;3.22;;;0.60;;
78875;SDS011;68253;52.506;5.486;2023-04-01T03:16:59;1.35;;;0.52;;
78875;SDS011;68253;52.506;5.486;2023-04-01T03:19:26;1.85;;;0.57;;
78875;SDS011;68253;52.506;5.486;2023-04-01T03:21:52;2.60;;;0.43;;
78875;SDS011;68253;52.506;5.486;2023-04-01T03:24:19;2.67;;;0.55;;
78875;SDS011;68253;52.506;5.486;2023-04-01T03:26:46;1.73;;;0.70;;
78875;SDS011;68253;52.506;5.486;2023-04-01T03:29:12;1.60;;;0.55;;
78875;SDS011;68253;52.506;5.486;2023-04-01T03:31:41;2.00;;;0.43;;
78875;SDS011;68253;52.506;5.486;2023-04-01T03:34:07;1.98;;;0.50;;
78875;SDS011;68253;52.506;5.486;2023-04-01T03:36:34;2.45;;;0.40;;
78875;SDS011;68253;52.506;5.486;2023-04-01T03:39:00;2.60;;;0.70;;
78875;SDS011;68253;52.506;5.486;2023-04-01T03:41:36;3.05;;;0.60;;
78875;SDS011;68253;52.506;5.486;2023-04-01T03:44:03;2.30;;;0.52;;
78875;SDS011;68253;52.506;5.486;2023-04-01T03:46:30;2.50;;;0.55;;
78875;SDS011;68253;52.506;5.486;2023-04-01T03:48:56;2.17;;;0.40;;
78875;SDS011;68253;52.506;5.486;2023-04-01T03:51:22;3.22;;;0.70;;
78875;SDS011;68253;52.506;5.486;2023-04-01T03:53:51;2.25;;;0.50;;
78875;SDS011;68253;52.506;5.486;2023-04-01T03:56:17;2.22;;;0.60;;
78875;SDS011;68253;52.506;5.486;2023-04-01T03:58:44;2.70;;;0.55;;
78875;SDS011;68253;52.506;5.486;2023-04-01T04:01:21;2.33;;;0.60;;
78875;SDS011;68253;52.506;5.486;2023-04-01T04:03:49;3.05;;;0.60;;
78875;SDS011;68253;52.506;5.486;2023-04-01T04:06:17;2.28;;;0.55;;
78875;SDS011;68253;52.506;5.486;2023-04-01T04:08:44;3.15;;;0.50;;
78875;SDS011;68253;52.506;5.486;2023-04-01T04:11:12;1.77;;;0.60;;
78875;SDS011;68253;52.506;5.486;2023-04-01T04:13:41;2.35;;;0.43;;
78875;SDS011;68253;52.506;5.486;2023-04-01T04:16:08;3.65;;;0.55;;
78875;SDS011;68253;52.506;5.486;2023-04-01T04:18:38;2.60;;;0.50;;
78875;SDS011;68253;52.506;5.486;2023-04-01T04:21:04;1.30;;;0.40;;
78875;SDS011;68253;52.506;5.486;2023-04-01T04:23:30;1.70;;;0.60;;
78875;SDS011;68253;52.506;5.486;2023-04-01T04:26:04;2.28;;;0.68;;
78875;SDS011;68253;52.506;5.486;2023-04-01T04:28:32;2.42;;;0.40;;
78875;SDS011;68253;52.506;5.486;2023-04-01T04:30:59;2.53;;;0.55;;
78875;SDS011;68253;52.506;5.486;2023-04-01T04:33:26;2.60;;;0.60;;
78875;SDS011;68253;52.506;5.486;2023-04-01T04:35:54;1.55;;;0.50;;
78875;SDS011;68253;52.506;5.486;2023-04-01T04:38:22;3.05;;;0.60;;
78875;SDS011;68253;52.506;5.486;2023-04-01T04:40:48;2.20;;;0.70;;
78875;SDS011;68253;52.506;5.486;2023-04-01T04:43:15;2.28;;;0.70;;
78875;SDS011;68253;52.506;5.486;2023-04-01T04:45:42;2.97;;;0.60;;
78875;SDS011;68253;52.506;5.486;2023-04-01T04:48:10;1.52;;;0.47;;
78875;SDS011;68253;52.506;5.486;2023-04-01T04:50:41;1.83;;;0.40;;
78875;SDS011;68253;52.506;5.486;2023-04-01T04:53:11;2.78;;;0.70;;
78875;SDS011;68253;52.506;5.486;2023-04-01T04:55:42;2.42;;;0.50;;
78875;SDS011;68253;52.506;5.486;2023-04-01T04:58:21;2.53;;;0.57;;
78875;SDS011;68253;52.506;5.486;2023-04-01T05:00:47;2.83;;;0.40;;
78875;SDS011;68253;52.506;5.486;2023-04-01T05:03:24;3.53;;;0.68;;
78875;SDS011;68253;52.506;5.486;2023-04-01T05:05:51;2.17;;;0.70;;
78875;SDS011;68253;52.506;5.486;2023-04-01T05:08:19;2.35;;;0.45;;
78875;SDS011;68253;52.506;5.486;2023-04-01T05:10:46;2.28;;;0.50;;
78875;SDS011;68253;52.506;5.486;2023-04-01T05:13:12;2.25;;;0.77;;
78875;SDS011;68253;52.506;5.486;2023-04-01T05:15:39;1.13;;;0.47;;
78875;SDS011;68253;52.506;5.486;2023-04-01T05:18:05;1.80;;;0.40;;
78875;SDS011;68253;52.506;5.486;2023-04-01T05:20:32;2.75;;;0.50;;
78875;SDS011;68253;52.506;5.486;2023-04-01T05:22:59;2.75;;;0.60;;
78875;SDS011;68253;52.506;5.486;2023-04-01T05:25:25;2.22;;;0.40;;
78875;SDS011;68253;52.506;5.486;2023-04-01T05:27:52;2.80;;;0.57;;
78875;SDS011;68253;52.506;5.486;2023-04-01T05:30:18;1.60;;;0.43;;
78875;SDS011;68253;52.506;5.486;2023-04-01T05:32:57;3.25;;;0.60;;
78875;SDS011;68253;52.506;5.486;2023-04-01T05:35:23;1.83;;;0.60;;
78875;SDS011;68253;52.506;5.486;2023-04-01T05:37:50;1.98;;;0.50;;
78875;SDS011;68253;52.506;5.486;2023-04-01T05:40:16;2.58;;;0.70;;
78875;SDS011;68253;52.506;5.486;2023-04-01T05:42:43;2.10;;;0.57;;
78875;SDS011;68253;52.506;5.486;2023-04-01T05:45:09;1.95;;;0.50;;
78875;SDS011;68253;52.506;5.486;2023-04-01T05:48:01;1.98;;;0.57;;
78875;SDS011;68253;52.506;5.486;2023-04-01T05:50:31;2.15;;;0.57;;
78875;SDS011;68253;52.506;5.486;2023-04-01T05:52:58;1.67;;;0.52;;
78875;SDS011;68253;52.506;5.486;2023-04-01T05:55:24;2.53;;;0.50;;
78875;SDS011;68253;52.506;5.486;2023-04-01T05:57:50;2.08;;;0.57;;
78875;SDS011;68253;52.506;5.486;2023-04-01T06:00:16;1.50;;;0.50;;
78875;SDS011;68253;52.506;5.486;2023-04-01T06:02:43;2.00;;;0.50;;
78875;SDS011;68253;52.506;5.486;2023-04-01T06:05:14;2.42;;;0.70;;
78875;SDS011;68253;52.506;5.486;2023-04-01T06:07:45;1.80;;;0.57;;
78875;SDS011;68253;52.506;5.486;2023-04-01T06:10:16;1.27;;;0.47;;
78875;SDS011;68253;52.506;5.486;2023-04-01T06:13:21;1.77;;;0.55;;
78875;SDS011;68253;52.506;5.486;2023-04-01T06:15:45;2.00;;;0.40;;
78875;SDS011;68253;52.506;5.486;2023-04-01T06:21:25;1.50;;;0.35;;
78875;SDS011;68253;52.506;5.486;2023-04-01T06:32:53;2.08;;;0.52;;
78875;SDS011;68253;52.506;5.486;2023-04-01T06:38:30;2.08;;;0.73;;
78875;SDS011;68253;52.506;5.486;2023-04-01T06:44:06;1.83;;;0.50;;
78875;SDS011;68253;52.506;5.486;2023-04-01T06:46:58;1.33;;;0.50;;
78875;SDS011;68253;52.506;5.486;2023-04-01T06:50:11;2.40;;;0.50;;
78875;SDS011;68253;52.506;5.486;2023-04-01T06:56:05;1.77;;;0.30;;
78875;SDS011;68253;52.506;5.486;2023-04-01T06:59:02;1.63;;;0.63;;
78875;SDS011;68253;52.506;5.486;2023-04-01T07:01:31;1.60;;;0.50;;
78875;SDS011;68253;52.506;5.486;2023-04-01T07:06:47;0.85;;;0.30;;
78875;SDS011;68253;52.506;5.486;2023-04-01T07:09:31;2.47;;;0.70;;
78875;SDS011;68253;52.506;5.486;2023-04-01T07:15:40;1.65;;;0.30;;
78875;SDS011;68253;52.506;5.486;2023-04-01T07:18:11;1.05;;;0.50;;
78875;SDS011;68253;52.506;5.486;2023-04-01T07:20:44;1.70;;;0.50;;
78875;SDS011;68253;52.506;5.486;2023-04-01T07:23:22;1.38;;;0.40;;
78875;SDS011;68253;52.506;5.486;2023-04-01T07:26:08;1.63;;;0.38;;
78875;SDS011;68253;52.506;5.486;2023-04-01T07:29:05;1.65;;;0.40;;
78875;SDS011;68253;52.506;5.486;2023-04-01T07:34:50;0.68;;;0.30;;
78875;SDS011;68253;52.506;5.486;2023-04-01T07:42:42;0.95;;;0.45;;
78875;SDS011;68253;52.506;5.486;2023-04-01T07:45:17;1.98;;;0.60;;
78875;SDS011;68253;52.506;5.486;2023-04-01T07:48:01;1.25;;;0.40;;
78875;SDS011;68253;52.506;5.486;2023-04-01T07:51:08;1.65;;;0.40;;
78875;SDS011;68253;52.506;5.486;2023-04-01T08:07:58;1.85;;;0.30;;
78875;SDS011;68253;52.506;5.486;2023-04-01T08:16:57;1.65;;;0.50;;
78875;SDS011;68253;52.506;5.486;2023-04-01T08:19:55;2.90;;;0.50;;
78875;SDS011;68253;52.506;5.486;2023-04-01T08:25:41;1.30;;;0.40;;
78875;SDS011;68253;52.506;5.486;2023-04-01T08:28:21;2.53;;;0.60;;
78875;SDS011;68253;52.506;5.486;2023-04-01T08:31:00;1.77;;;0.52;;
78875;SDS011;68253;52.506;5.486;2023-04-01T08:33:34;1.27;;;0.40;;
78875;SDS011;68253;52.506;5.486;2023-04-01T08:39:15;1.73;;;0.50;;
78875;SDS011;68253;52.506;5.486;2023-04-01T08:50:23;2.58;;;0.60;;
78875;SDS011;68253;52.506;5.486;2023-04-01T08:56:20;1.52;;;0.40;;
78875;SDS011;68253;52.506;5.486;2023-04-01T08:58:59;2.17;;;0.40;;
78875;SDS011;68253;52.506;5.486;2023-04-01T09:07:24;1.08;;;0.38;;
78875;SDS011;68253;52.506;5.486;2023-04-01T09:13:08;1.80;;;0.50;;
78875;SDS011;68253;52.506;5.486;2023-04-01T09:16:22;1.17;;;0.45;;
78875;SDS011;68253;52.506;5.486;2023-04-01T09:22:22;1.95;;;0.30;;
78875;SDS011;68253;52.506;5.486;2023-04-01T09:36:43;1.70;;;0.40;;
78875;SDS011;68253;52.506;5.486;2023-04-01T09:42:31;1.75;;;0.30;;
78875;SDS011;68253;52.506;5.486;2023-04-01T09:48:14;1.63;;;0.40;;
78875;SDS011;68253;52.506;5.486;2023-04-01T10:07:58;1.52;;;0.40;;
78875;SDS011;68253;52.506;5.486;2023-04-01T10:16:22;1.10;;;0.35;;
78875;SDS011;68253;52.506;5.486;2023-04-01T10:28:29;1.65;;;0.47;;
78875;SDS011;68253;52.506;5.486;2023-04-01T10:40:31;2.20;;;0.60;;
78875;SDS011;68253;52.506;5.486;2023-04-01T10:47:00;3.28;;;0.90;;
78875;SDS011;68253;52.506;5.486;2023-04-01T10:50:11;3.90;;;0.60;;
78875;SDS011;68253;52.506;5.486;2023-04-01T10:56:04;2.78;;;0.60;;
78875;SDS011;68253;52.506;5.486;2023-04-01T11:14:35;4.43;;;0.70;;
78875;SDS011;68253;52.506;5.486;2023-04-01T11:28:33;4.72;;;0.90;;
78875;SDS011;68253;52.506;5.486;2023-04-01T11:34:46;9.88;;;1.10;;
78875;SDS011;68253;52.506;5.486;2023-04-01T11:37:13;2.90;;;0.63;;
78875;SDS011;68253;52.506;5.486;2023-04-01T11:49:18;3.63;;;0.65;;
78875;SDS011;68253;52.506;5.486;2023-04-01T11:54:53;2.08;;;0.70;;
78875;SDS011;68253;52.506;5.486;2023-04-01T11:58:00;4.47;;;0.75;;
78875;SDS011;68253;52.506;5.486;2023-04-01T12:09:22;2.58;;;0.68;;
78875;SDS011;68253;52.506;5.486;2023-04-01T12:12:46;2.78;;;0.70;;
78875;SDS011;68253;52.506;5.486;2023-04-01T12:14:54;4.05;;;0.80;;
78875;SDS011;68253;52.506;5.486;2023-04-01T12:26:16;4.68;;;0.75;;
78875;SDS011;68253;52.506;5.486;2023-04-01T12:29:13;2.88;;;0.70;;
78875;SDS011;68253;52.506;5.486;2023-04-01T12:37:01;2.85;;;0.50;;
78875;SDS011;68253;52.506;5.486;2023-04-01T12:42:44;2.67;;;0.80;;
78875;SDS011;68253;52.506;5.486;2023-04-01T12:45:31;2.10;;;0.80;;
78875;SDS011;68253;52.506;5.486;2023-04-01T13:02:20;3.65;;;1.00;;
78875;SDS011;68253;52.506;5.486;2023-04-01T13:10:31;3.10;;;0.60;;
78875;SDS011;68253;52.506;5.486;2023-04-01T13:16:17;2.47;;;0.70;;
78875;SDS011;68253;52.506;5.486;2023-04-01T13:19:01;1.88;;;0.50;;
78875;SDS011;68253;52.506;5.486;2023-04-01T13:24:31;2.80;;;0.80;;
78875;SDS011;68253;52.506;5.486;2023-04-01T13:27:14;2.08;;;0.60;;
78875;SDS011;68253;52.506;5.486;2023-04-01T13:29:59;3.08;;;0.63;;
78875;SDS011;68253;52.506;5.486;2023-04-01T13:43:17;3.40;;;0.85;;
78875;SDS011;68253;52.506;5.486;2023-04-01T13:51:34;2.60;;;0.70;;
78875;SDS011;68253;52.506;5.486;2023-04-01T14:10:59;2.88;;;0.80;;
78875;SDS011;68253;52.506;5.486;2023-04-01T14:13:51;2.95;;;0.70;;
78875;SDS011;68253;52.506;5.486;2023-04-01T14:25:00;2.03;;;0.55;;
78875;SDS011;68253;52.506;5.486;2023-04-01T14:27:36;3.35;;;0.73;;
78875;SDS011;68253;52.506;5.486;2023-04-01T14:30:15;1.88;;;0.68;;
78875;SDS011;68253;52.506;5.486;2023-04-01T14:33:15;1.92;;;0.70;;
78875;SDS011;68253;52.506;5.486;2023-04-01T14:36:02;1.58;;;0.70;;
78875;SDS011;68253;52.506;5.486;2023-04-01T14:41:45;2.00;;;0.68;;
78875;SDS011;68253;52.506;5.486;2023-04-01T14:49:20;2.78;;;1.05;;
78875;SDS011;68253;52.506;5.486;2023-04-01T14:51:56;2.45;;;0.60;;
78875;SDS011;68253;52.506;5.486;2023-04-01T14:54:50;2.22;;;0.65;;
78875;SDS011;68253;52.506;5.486;2023-04-01T14:57:24;1.48;;;0.55;;
78875;SDS011;68253;52.506;5.486;2023-04-01T14:59:54;2.40;;;0.60;;
78875;SDS011;68253;52.506;5.486;2023-04-01T15:02:33;2.60;;;0.90;;
78875;SDS011;68253;52.506;5.486;2023-04-01T15:07:48;2.92;;;0.80;;
78875;SDS011;68253;52.506;5.486;2023-04-01T15:12:59;1.92;;;0.70;;
78875;SDS011;68253;52.506;5.486;2023-04-01T15:15:57;2.35;;;0.75;;
78875;SDS011;68253;52.506;5.486;2023-04-01T15:19:01;1.58;;;0.50;;
78875;SDS011;68253;52.506;5.486;2023-04-01T15:24:25;1.95;;;0.60;;
78875;SDS011;68253;52.506;5.486;2023-04-01T15:35:37;2.13;;;0.70;;
78875;SDS011;68253;52.506;5.486;2023-04-01T15:40:56;2.28;;;0.50;;
78875;SDS011;68253;52.506;5.486;2023-04-01T15:43:49;1.98;;;0.60;;
78875;SDS011;68253;52.506;5.486;2023-04-01T15:49:03;2.05;;;0.60;;
78875;SDS011;68253;52.506;5.486;2023-04-01T15:51:41;2.25;;;0.70;;
78875;SDS011;68253;52.506;5.486;2023-04-01T15:57:25;0.95;;;0.40;;
78875;SDS011;68253;52.506;5.486;2023-04-01T16:18:42;1.17;;;0.60;;
78875;SDS011;68253;52.506;5.486;2023-04-01T16:27:02;2.63;;;0.70;;
78875;SDS011;68253;52.506;5.486;2023-04-01T16:29:56;1.67;;;0.50;;
78875;SDS011;68253;52.506;5.486;2023-04-01T16:32:51;1.70;;;0.60;;
78875;SDS011;68253;52.506;5.486;2023-04-01T16:35:34;1.88;;;0.63;;
78875;SDS011;68253;52.506;5.486;2023-04-01T16:38:09;3.38;;;0.82;;
78875;SDS011;68253;52.506;5.486;2023-04-01T16:43:30;9.88;;;1.95;;
78875;SDS011;68253;52.506;5.486;2023-04-01T16:46:30;16.30;;;3.70;;
78875;SDS011;68253;52.506;5.486;2023-04-01T16:49:04;26.88;;;6.38;;
78875;SDS011;68253;52.506;5.486;2023-04-01T16:56:43;24.60;;;7.78;;
78875;SDS011;68253;52.506;5.486;2023-04-01T16:59:22;26.13;;;6.70;;
78875;SDS011;68253;52.506;5.486;2023-04-01T17:21:06;17.73;;;4.65;;
78875;SDS011;68253;52.506;5.486;2023-04-01T17:23:51;14.80;;;3.83;;
78875;SDS011;68253;52.506;5.486;2023-04-01T17:26:32;14.60;;;3.95;;
78875;SDS011;68253;52.506;5.486;2023-04-01T17:37:02;13.30;;;3.53;;
78875;SDS011;68253;52.506;5.486;2023-04-01T17:42:22;12.85;;;3.08;;
78875;SDS011;68253;52.506;5.486;2023-04-01T17:45:04;14.82;;;3.67;;
78875;SDS011;68253;52.506;5.486;2023-04-01T17:47:41;13.30;;;3.15;;
78875;SDS011;68253;52.506;5.486;2023-04-01T17:50:44;12.48;;;3.53;;
78875;SDS011;68253;52.506;5.486;2023-04-01T17:56:08;11.98;;;3.10;;
78875;SDS011;68253;52.506;5.486;2023-04-01T17:58:55;13.43;;;2.90;;
78875;SDS011;68253;52.506;5.486;2023-04-01T18:04:29;9.75;;;2.75;;
78875;SDS011;68253;52.506;5.486;2023-04-01T18:10:06;9.98;;;2.97;;
78875;SDS011;68253;52.506;5.486;2023-04-01T18:21:13;12.13;;;2.85;;
78875;SDS011;68253;52.506;5.486;2023-04-01T18:23:48;10.57;;;2.40;;
78875;SDS011;68253;52.506;5.486;2023-04-01T18:26:24;10.88;;;2.30;;
78875;SDS011;68253;52.506;5.486;2023-04-01T18:32:24;13.00;;;2.75;;
78875;SDS011;68253;52.506;5.486;2023-04-01T18:37:50;11.27;;;3.03;;
78875;SDS011;68253;52.506;5.486;2023-04-01T18:46:45;8.40;;;2.10;;
78875;SDS011;68253;52.506;5.486;2023-04-01T18:49:17;10.05;;;2.45;;
78875;SDS011;68253;52.506;5.486;2023-04-01T18:51:59;8.57;;;2.22;;
78875;SDS011;68253;52.506;5.486;2023-04-01T18:54:50;8.38;;;2.13;;
78875;SDS011;68253;52.506;5.486;2023-04-01T18:57:48;8.43;;;2.10;;
78875;SDS011;68253;52.506;5.486;2023-04-01T19:00:25;8.68;;;1.85;;
78875;SDS011;68253;52.506;5.486;2023-04-01T19:02:55;8.07;;;1.77;;
78875;SDS011;68253;52.506;5.486;2023-04-01T19:05:31;7.78;;;2.10;;
78875;SDS011;68253;52.506;5.486;2023-04-01T19:08:42;9.40;;;2.30;;
78875;SDS011;68253;52.506;5.486;2023-04-01T19:11:01;11.20;;;2.50;;
78875;SDS011;68253;52.506;5.486;2023-04-01T19:13:46;7.93;;;2.08;;
78875;SDS011;68253;52.506;5.486;2023-04-01T19:19:33;8.77;;;1.98;;
78875;SDS011;68253;52.506;5.486;2023-04-01T19:27:55;7.85;;;2.00;;
78875;SDS011;68253;52.506;5.486;2023-04-01T19:30:53;8.15;;;1.90;;
78875;SDS011;68253;52.506;5.486;2023-04-01T19:38:57;8.23;;;2.38;;
78875;SDS011;68253;52.506;5.486;2023-04-01T19:47:44;8.23;;;2.03;;
78875;SDS011;68253;52.506;5.486;2023-04-01T19:50:51;6.32;;;1.40;;
78875;SDS011;68253;52.506;5.486;2023-04-01T19:56:00;6.80;;;1.85;;
78875;SDS011;68253;52.506;5.486;2023-04-01T19:58:47;8.30;;;2.05;;
78875;SDS011;68253;52.506;5.486;2023-04-01T20:07:09;6.18;;;1.80;;
78875;SDS011;68253;52.506;5.486;2023-04-01T20:12:47;7.30;;;1.50;;
78875;SDS011;68253;52.506;5.486;2023-04-01T20:23:58;8.30;;;1.58;;
78875;SDS011;68253;52.506;5.486;2023-04-01T20:26:33;6.88;;;1.90;;
78875;SDS011;68253;52.506;5.486;2023-04-01T20:32:33;7.40;;;1.77;;
78875;SDS011;68253;52.506;5.486;2023-04-01T20:35:14;8.00;;;2.10;;
78875;SDS011;68253;52.506;5.486;2023-04-01T20:37:55;5.97;;;1.70;;
78875;SDS011;68253;52.506;5.486;2023-04-01T20:51:19;6.25;;;1.50;;
78875;SDS011;68253;52.506;5.486;2023-04-01T21:05:46;5.88;;;1.30;;
78875;SDS011;68253;52.506;5.486;2023-04-01T21:11:27;5.15;;;1.75;;
78875;SDS011;68253;52.506;5.486;2023-04-01T21:32:58;6.20;;;1.40;;
78875;SDS011;68253;52.506;5.486;2023-04-01T21:49:49;6.28;;;1.50;;
78875;SDS011;68253;52.506;5.486;2023-04-01T21:52:46;6.00;;;1.60;;
78875;SDS011;68253;52.506;5.486;2023-04-01T22:04:00;6.10;;;1.70;;
78875;SDS011;68253;52.506;5.486;2023-04-01T22:06:49;6.35;;;1.70;;
78875;SDS011;68253;52.506;5.486;2023-04-01T22:09:25;5.65;;;1.23;;
78875;SDS011;68253;52.506;5.486;2023-04-01T22:15:17;5.25;;;1.63;;
78875;SDS011;68253;52.506;5.486;2023-04-01T22:25:29;5.53;;;1.45;;
78875;SDS011;68253;52.506;5.486;2023-04-01T22:28:22;5.18;;;1.42;;
78875;SDS011;68253;52.506;5.486;2023-04-01T22:30:55;5.50;;;1.42;;
78875;SDS011;68253;52.506;5.486;2023-04-01T22:33:35;4.68;;;1.23;;
78875;SDS011;68253;52.506;5.486;2023-04-01T22:39:13;5.15;;;1.48;;
78875;SDS011;68253;52.506;5.486;2023-04-01T22:41:51;6.45;;;1.70;;
78875;SDS011;68253;52.506;5.486;2023-04-01T22:44:44;5.20;;;1.50;;
78875;SDS011;68253;52.506;5.486;2023-04-01T22:47:57;5.18;;;1.20;;
78875;SDS011;68253;52.506;5.486;2023-04-01T22:50:32;6.07;;;1.38;;
78875;SDS011;68253;52.506;5.486;2023-04-01T22:52:58;5.05;;;1.30;;
78875;SDS011;68253;52.506;5.486;2023-04-01T22:55:46;6.28;;;1.52;;
78875;SDS011;68253;52.506;5.486;2023-04-01T22:58:17;6.75;;;1.55;;
78875;SDS011;68253;52.506;5.486;2023-04-01T23:00:50;6.15;;;1.40;;
78875;SDS011;68253;52.506;5.486;2023-04-01T23:03:23;4.72;;;1.23;;
78875;SDS011;68253;52.506;5.486;2023-04-01T23:05:56;5.45;;;1.40;;
78875;SDS011;68253;52.506;5.486;2023-04-01T23:11:44;5.22;;;1.63;;
78875;SDS011;68253;52.506;5.486;2023-04-01T23:16:45;6.00;;;1.58;;
78875;SDS011;68253;52.506;5.486;2023-04-01T23:22:35;6.75;;;1.50;;
78875;SDS011;68253;52.506;5.486;2023-04-01T23:33:26;6.28;;;1.80;;
78875;SDS011;68253;52.506;5.486;2023-04-01T23:35:54;5.70;;;1.33;;
78875;SDS011;68253;52.506;5.486;2023-04-01T23:38:36;5.13;;;1.45;;
78875;SDS011;68253;52.506;5.486;2023-04-01T23:41:05;5.82;;;1.45;;
78875;SDS011;68253;52.506;5.486;2023-04-01T23:43:33;4.15;;;1.02;;
78875;SDS011;68253;52.506;5.486;2023-04-01T23:46:03;5.68;;;1.30;;
78875;SDS011;68253;52.506;5.486;2023-04-01T23:48:38;5.32;;;1.20;;
78875;SDS011;68253;52.506;5.486;2023-04-01T23:51:25;5.63;;;1.58;;
78875;SDS011;68253;52.506;5.486;2023-04-01T23:54:04;5.13;;;1.45;;
78875;SDS011;68253;52.506;5.486;2023-04-01T23:56:46;5.65;;;1.40;;
78875;SDS011;68253;52.506;5.486;2023-04-01T23:59:18;5.95;;;1.70;;
